Time;durP1;ratioP1;P1;durP2;ratioP2;P2;SDS_P1;SDS_P2;PMS_P1;PMS_P2;Temp;Humidity;BMP_temperature;BMP_pressure;BME280_temperature;BME280_humidity;BME280_pressure;Samples;Min_cycle;Max_cycle;Signal;HPM_P1;HPM_P2
2023/06/08 00:02:23;;;;;;;4.10;3.90;;;;;;;;;;4955304;28;20419;-71
2023/06/08 00:04:49;;;;;;;4.00;3.80;;;;;;;;;;4955526;28;20427;-71
2023/06/08 00:07:16;;;;;;;3.50;3.40;;;;;;;;;;4955479;28;20459;-71
2023/06/08 00:09:42;;;;;;;3.53;3.40;;;;;;;;;;4969975;28;20419;-70
2023/06/08 00:12:08;;;;;;;4.00;3.80;;;;;;;;;;4955002;28;20919;-70
2023/06/08 00:14:35;;;;;;;3.90;3.80;;;;;;;;;;4955630;28;20427;-69
2023/06/08 00:17:03;;;;;;;7.83;3.73;;;;;;;;;;4954911;28;20426;-71
2023/06/08 00:19:29;;;;;;;3.73;3.63;;;;;;;;;;4955100;28;20485;-70
2023/06/08 00:21:56;;;;;;;3.07;2.90;;;;;;;;;;4954974;28;20426;-71
2023/06/08 00:24:22;;;;;;;4.13;3.93;;;;;;;;;;4955005;28;20423;-70
2023/06/08 00:26:48;;;;;;;4.17;3.97;;;;;;;;;;4955020;28;20415;-70
2023/06/08 00:29:15;;;;;;;4.97;4.60;;;;;;;;;;4955240;28;20486;-71
2023/06/08 00:31:41;;;;;;;3.80;3.60;;;;;;;;;;4954943;28;20423;-69
2023/06/08 00:34:07;;;;;;;5.40;3.93;;;;;;;;;;4954869;28;20465;-69
2023/06/08 00:36:33;;;;;;;3.33;3.13;;;;;;;;;;4954901;28;20419;-71
2023/06/08 00:38:59;;;;;;;3.20;3.10;;;;;;;;;;4955321;28;20831;-70
2023/06/08 00:41:25;;;;;;;3.93;3.30;;;;;;;;;;4954848;28;20869;-70
2023/06/08 00:43:51;;;;;;;3.53;3.43;;;;;;;;;;4955004;28;20793;-71
2023/06/08 00:46:19;;;;;;;3.70;3.60;;;;;;;;;;4969618;28;20941;-71
2023/06/08 00:48:45;;;;;;;3.57;3.37;;;;;;;;;;4954704;28;20435;-70
2023/06/08 00:51:12;;;;;;;4.00;3.50;;;;;;;;;;4954677;28;20482;-71
2023/06/08 00:53:38;;;;;;;6.13;3.83;;;;;;;;;;4954766;28;20418;-70
2023/06/08 00:56:04;;;;;;;3.87;3.77;;;;;;;;;;4954858;28;20422;-70
2023/06/08 00:58:33;;;;;;;10.60;3.50;;;;;;;;;;4969371;28;20486;-72
2023/06/08 01:00:59;;;;;;;9.80;3.90;;;;;;;;;;4954595;28;20415;-71
2023/06/08 01:03:33;;;;;;;4.33;4.13;;;;;;;;;;4969557;28;20541;-71
2023/06/08 01:06:00;;;;;;;3.30;3.20;;;;;;;;;;4954607;28;20892;-71
2023/06/08 01:08:47;;;;;;;5.73;4.30;;;;;;;;;;4954605;28;20446;-70
2023/06/08 01:11:31;;;;;;;4.60;4.30;;;;;;;;;;4954852;29;20434;-69
2023/06/08 01:14:15;;;;;;;3.97;3.87;;;;;;;;;;4954725;28;20410;-70
2023/06/08 01:16:44;;;;;;;4.23;4.13;;;;;;;;;;4954780;28;20415;-69
2023/06/08 01:19:12;;;;;;;4.17;3.80;;;;;;;;;;4969277;28;20486;-70
2023/06/08 01:21:47;;;;;;;3.53;3.43;;;;;;;;;;4954493;28;20482;-69
2023/06/08 01:24:16;;;;;;;4.27;3.77;;;;;;;;;;4954713;28;20411;-69
2023/06/08 01:26:43;;;;;;;4.67;4.27;;;;;;;;;;4954616;28;20419;-68
2023/06/08 01:29:11;;;;;;;3.80;3.60;;;;;;;;;;4954581;28;20521;-71
2023/06/08 01:31:37;;;;;;;2.93;2.93;;;;;;;;;;4954748;28;20507;-71
2023/06/08 01:34:06;;;;;;;4.23;4.13;;;;;;;;;;4954317;28;20836;-70
2023/06/08 01:36:33;;;;;;;4.33;4.13;;;;;;;;;;4955981;28;20519;-69
2023/06/08 01:39:05;;;;;;;4.47;3.70;;;;;;;;;;4957927;28;20843;-70
2023/06/08 01:41:38;;;;;;;3.70;3.60;;;;;;;;;;4958205;28;20446;-71
2023/06/08 01:44:06;;;;;;;3.97;3.87;;;;;;;;;;4958577;28;20431;-70
2023/06/08 01:46:32;;;;;;;4.07;3.97;;;;;;;;;;4957787;28;20470;-71
2023/06/08 01:49:00;;;;;;;3.30;3.20;;;;;;;;;;4958027;28;20479;-70
2023/06/08 01:51:26;;;;;;;3.17;3.00;;;;;;;;;;4957748;28;20425;-71
2023/06/08 01:54:02;;;;;;;3.80;3.70;;;;;;;;;;4957924;28;20423;-71
2023/06/08 01:56:32;;;;;;;6.70;3.70;;;;;;;;;;4957811;28;20501;-69
2023/06/08 01:58:58;;;;;;;8.50;3.80;;;;;;;;;;4957687;28;20478;-71
2023/06/08 02:01:24;;;;;;;4.40;4.20;;;;;;;;;;4957605;28;20581;-70
2023/06/08 02:03:50;;;;;;;3.40;3.20;;;;;;;;;;4957708;28;20498;-70
2023/06/08 02:06:16;;;;;;;3.27;3.17;;;;;;;;;;4957685;28;20514;-71
2023/06/08 02:08:42;;;;;;;4.37;4.17;;;;;;;;;;4957729;28;20538;-70
2023/06/08 02:11:09;;;;;;;3.67;3.57;;;;;;;;;;4957351;28;20897;-69
2023/06/08 02:13:39;;;;;;;5.03;4.73;;;;;;;;;;4957613;28;20486;-69
2023/06/08 02:16:05;;;;;;;4.53;4.40;;;;;;;;;;4957605;28;20423;-70
2023/06/08 02:18:34;;;;;;;5.07;4.50;;;;;;;;;;4957451;28;20549;-69
2023/06/08 02:21:02;;;;;;;5.00;4.80;;;;;;;;;;4957427;28;20415;-70
2023/06/08 02:23:28;;;;;;;4.83;4.53;;;;;;;;;;4957184;28;20427;-70
2023/06/08 02:25:53;;;;;;;3.83;3.73;;;;;;;;;;4957106;28;20419;-71
2023/06/08 02:31:25;;;;;;;3.83;3.73;;;;;;;;;;4957139;29;20735;-69
2023/06/08 02:33:51;;;;;;;4.70;4.50;;;;;;;;;;4957206;28;20411;-69
2023/06/08 02:36:17;;;;;;;4.77;4.57;;;;;;;;;;4956927;28;20419;-71
2023/06/08 02:38:43;;;;;;;4.10;4.00;;;;;;;;;;4956771;28;20481;-69
2023/06/08 02:41:09;;;;;;;4.10;4.00;;;;;;;;;;4957110;28;20423;-70
2023/06/08 02:43:35;;;;;;;4.33;4.13;;;;;;;;;;4956730;28;20892;-69
2023/06/08 02:46:01;;;;;;;4.63;4.53;;;;;;;;;;4957027;28;20458;-70
2023/06/08 02:48:27;;;;;;;5.40;4.30;;;;;;;;;;4956339;28;20963;-70
2023/06/08 02:50:53;;;;;;;4.70;4.60;;;;;;;;;;4955811;29;20437;-70
2023/06/08 02:53:19;;;;;;;4.57;4.27;;;;;;;;;;4956879;28;20423;-69
2023/06/08 02:55:45;;;;;;;4.30;4.20;;;;;;;;;;4956801;28;20422;-69
2023/06/08 02:58:11;;;;;;;4.50;4.37;;;;;;;;;;4956357;28;20513;-70
2023/06/08 03:00:38;;;;;;;4.63;4.43;;;;;;;;;;4956758;28;20411;-69
2023/06/08 03:03:04;;;;;;;4.60;4.30;;;;;;;;;;4956379;28;20451;-69
2023/06/08 03:05:34;;;;;;;4.30;4.10;;;;;;;;;;4956712;28;20422;-70
2023/06/08 03:08:00;;;;;;;4.53;4.33;;;;;;;;;;4956581;28;20522;-70
2023/06/08 03:10:26;;;;;;;4.80;4.57;;;;;;;;;;4956573;28;20931;-70
2023/06/08 03:12:52;;;;;;;4.10;3.90;;;;;;;;;;4956459;28;20501;-70
2023/06/08 03:15:22;;;;;;;5.00;4.90;;;;;;;;;;4956542;28;20597;-70
2023/06/08 03:17:48;;;;;;;3.83;3.53;;;;;;;;;;4956277;28;20465;-70
2023/06/08 03:20:17;;;;;;;4.03;3.80;;;;;;;;;;4957297;28;20426;-71
2023/06/08 03:22:45;;;;;;;5.37;5.07;;;;;;;;;;4956063;28;21051;-69
2023/06/08 03:25:15;;;;;;;5.13;4.50;;;;;;;;;;4956286;28;20442;-69
2023/06/08 03:27:40;;;;;;;4.63;4.40;;;;;;;;;;4956161;28;20801;-70
2023/06/08 03:30:07;;;;;;;4.40;4.10;;;;;;;;;;4956160;28;20958;-71
2023/06/08 03:32:33;;;;;;;4.17;3.87;;;;;;;;;;4955889;28;20406;-71
2023/06/08 03:34:59;;;;;;;4.77;4.67;;;;;;;;;;4956161;28;20731;-70
2023/06/08 03:37:25;;;;;;;4.30;4.17;;;;;;;;;;4955612;28;20505;-69
2023/06/08 03:39:51;;;;;;;4.80;4.47;;;;;;;;;;4970628;28;20502;-70
2023/06/08 03:42:17;;;;;;;4.60;4.20;;;;;;;;;;4955649;28;20837;-70
2023/06/08 03:44:42;;;;;;;4.40;4.10;;;;;;;;;;4955670;28;20423;-70
2023/06/08 03:47:09;;;;;;;4.33;4.13;;;;;;;;;;4955768;28;20510;-71
2023/06/08 03:49:35;;;;;;;4.10;4.00;;;;;;;;;;4970759;28;20788;-71
2023/06/08 03:52:01;;;;;;;4.43;4.23;;;;;;;;;;4955723;28;20922;-70
2023/06/08 03:54:27;;;;;;;4.30;4.00;;;;;;;;;;4955692;28;20531;-69
2023/06/08 03:56:53;;;;;;;3.50;3.40;;;;;;;;;;4955566;28;20431;-71
2023/06/08 03:59:19;;;;;;;4.70;4.40;;;;;;;;;;4954705;28;20529;-70
2023/06/08 04:01:45;;;;;;;4.87;4.73;;;;;;;;;;4970129;28;20427;-71
2023/06/08 04:04:11;;;;;;;5.10;4.90;;;;;;;;;;4955444;28;20431;-71
2023/06/08 04:06:38;;;;;;;4.97;4.67;;;;;;;;;;4955252;28;20421;-68
2023/06/08 04:09:04;;;;;;;4.70;4.43;;;;;;;;;;4970046;28;20462;-70
2023/06/08 04:11:30;;;;;;;5.27;4.97;;;;;;;;;;4955471;28;20834;-70
2023/06/08 04:13:56;;;;;;;4.40;4.27;;;;;;;;;;4955050;28;20987;-70
2023/06/08 04:16:22;;;;;;;4.23;4.10;;;;;;;;;;4955123;28;20799;-72
2023/06/08 04:18:48;;;;;;;6.13;5.60;;;;;;;;;;4955011;28;20486;-72
2023/06/08 04:21:14;;;;;;;5.07;4.63;;;;;;;;;;4955121;28;20422;-71
2023/06/08 04:23:40;;;;;;;4.57;4.30;;;;;;;;;;4969863;28;20947;-71
2023/06/08 04:26:07;;;;;;;6.30;4.60;;;;;;;;;;4954962;28;20462;-72
2023/06/08 04:28:33;;;;;;;4.70;4.60;;;;;;;;;;4955712;28;20431;-71
2023/06/08 04:30:59;;;;;;;4.20;4.10;;;;;;;;;;4969768;28;20489;-71
2023/06/08 04:33:26;;;;;;;4.83;4.70;;;;;;;;;;4955085;28;20422;-72
2023/06/08 04:35:52;;;;;;;4.07;3.97;;;;;;;;;;4954998;28;20415;-71
2023/06/08 04:38:18;;;;;;;5.13;4.60;;;;;;;;;;4954998;28;20477;-71
2023/06/08 04:40:48;;;;;;;5.43;4.87;;;;;;;;;;4955126;28;20458;-69
2023/06/08 04:43:13;;;;;;;4.40;4.20;;;;;;;;;;4954765;28;20423;-70
2023/06/08 04:45:43;;;;;;;4.20;4.00;;;;;;;;;;4955071;28;20765;-72
2023/06/08 04:48:10;;;;;;;5.10;4.50;;;;;;;;;;4954600;28;20982;-72
2023/06/08 04:50:38;;;;;;;4.97;4.07;;;;;;;;;;4969624;28;20466;-70
2023/06/08 04:53:05;;;;;;;4.27;4.17;;;;;;;;;;4954920;28;20442;-71
2023/06/08 04:55:31;;;;;;;5.47;4.97;;;;;;;;;;4954849;28;20423;-71
2023/06/08 04:57:57;;;;;;;4.73;4.47;;;;;;;;;;4954704;28;20577;-72
2023/06/08 05:00:23;;;;;;;5.37;5.07;;;;;;;;;;4954853;28;20419;-71
2023/06/08 05:02:49;;;;;;;9.87;4.70;;;;;;;;;;4955113;28;20470;-72
2023/06/08 05:05:15;;;;;;;4.20;4.00;;;;;;;;;;4954533;28;20423;-72
2023/06/08 05:07:42;;;;;;;8.83;4.67;;;;;;;;;;4954822;28;20434;-71
2023/06/08 05:10:09;;;;;;;5.47;5.27;;;;;;;;;;4954871;28;20430;-72
2023/06/08 05:12:34;;;;;;;4.50;4.40;;;;;;;;;;4957905;28;20514;-71
2023/06/08 05:15:02;;;;;;;4.93;4.47;;;;;;;;;;4958378;28;20859;-70
2023/06/08 05:17:28;;;;;;;4.87;4.73;;;;;;;;;;4958244;28;20466;-70
2023/06/08 05:19:54;;;;;;;4.60;4.40;;;;;;;;;;4973155;28;20433;-69
2023/06/08 05:22:20;;;;;;;5.10;4.73;;;;;;;;;;4958472;28;20438;-69
2023/06/08 05:24:46;;;;;;;5.60;5.27;;;;;;;;;;4958384;28;20919;-68
2023/06/08 05:27:12;;;;;;;4.60;4.40;;;;;;;;;;4958667;28;20942;-70
2023/06/08 05:29:38;;;;;;;5.13;4.63;;;;;;;;;;4958673;28;20868;-69
2023/06/08 05:32:05;;;;;;;4.10;3.90;;;;;;;;;;4958350;28;20521;-70
2023/06/08 05:34:31;;;;;;;4.80;4.50;;;;;;;;;;4957967;28;20435;-71
2023/06/08 05:36:57;;;;;;;4.77;4.30;;;;;;;;;;4957931;28;20433;-71
2023/06/08 05:39:23;;;;;;;4.67;4.17;;;;;;;;;;4958131;28;20485;-69
2023/06/08 05:41:48;;;;;;;5.37;5.00;;;;;;;;;;4958269;28;20875;-70
2023/06/08 05:44:15;;;;;;;3.73;3.63;;;;;;;;;;4957834;28;20455;-69
2023/06/08 05:46:41;;;;;;;6.27;3.93;;;;;;;;;;4957504;28;20509;-70
2023/06/08 05:49:07;;;;;;;5.80;4.53;;;;;;;;;;4957723;28;20794;-69
2023/06/08 05:51:33;;;;;;;4.00;3.90;;;;;;;;;;4972646;28;20426;-71
2023/06/08 05:53:59;;;;;;;4.83;4.53;;;;;;;;;;4957676;28;20426;-70
2023/06/08 05:56:26;;;;;;;4.23;4.13;;;;;;;;;;4958338;28;20886;-71
2023/06/08 05:58:52;;;;;;;6.03;4.33;;;;;;;;;;4957758;28;20487;-69
2023/06/08 06:01:21;;;;;;;5.27;4.43;;;;;;;;;;4957942;28;20786;-69
2023/06/08 06:03:47;;;;;;;3.90;3.60;;;;;;;;;;4957779;28;20777;-59
2023/06/08 06:06:13;;;;;;;6.07;4.57;;;;;;;;;;4957434;28;20427;-68
2023/06/08 06:08:39;;;;;;;5.20;4.90;;;;;;;;;;4957725;28;20426;-68
2023/06/08 06:11:05;;;;;;;4.53;4.43;;;;;;;;;;4957725;28;20505;-68
2023/06/08 06:13:31;;;;;;;4.83;4.63;;;;;;;;;;4957614;28;20485;-68
2023/06/08 06:15:58;;;;;;;5.43;4.80;;;;;;;;;;4957235;28;20430;-72
2023/06/08 06:18:24;;;;;;;4.23;4.07;;;;;;;;;;4957182;28;21058;-73
2023/06/08 06:20:50;;;;;;;4.83;4.60;;;;;;;;;;4957299;28;20418;-73
2023/06/08 06:23:16;;;;;;;4.27;4.17;;;;;;;;;;4956602;28;20911;-73
2023/06/08 06:25:44;;;;;;;5.47;5.27;;;;;;;;;;4957145;28;20514;-73
2023/06/08 06:28:10;;;;;;;4.83;4.73;;;;;;;;;;4957078;28;20493;-73
2023/06/08 06:30:37;;;;;;;6.20;4.60;;;;;;;;;;4957114;28;20431;-73
2023/06/08 06:33:03;;;;;;;5.77;5.47;;;;;;;;;;4957057;28;20473;-73
2023/06/08 06:35:28;;;;;;;5.32;4.82;;;;;;;;;;4956326;28;20799;-68
2023/06/08 06:40:59;;;;;;;6.67;5.97;;;;;;;;;;4956963;29;20414;-69
2023/06/08 06:43:25;;;;;;;5.93;5.27;;;;;;;;;;4956695;28;20495;-69
2023/06/08 06:45:52;;;;;;;5.30;5.10;;;;;;;;;;4956828;28;20458;-68
2023/06/08 06:48:21;;;;;;;5.27;5.07;;;;;;;;;;4956596;28;20462;-69
2023/06/08 06:50:47;;;;;;;6.00;5.67;;;;;;;;;;4956676;28;20427;-68
2023/06/08 06:53:13;;;;;;;5.83;5.40;;;;;;;;;;4956615;28;20430;-69
2023/06/08 06:55:40;;;;;;;5.90;5.60;;;;;;;;;;4956680;28;20527;-68
2023/06/08 06:58:06;;;;;;;5.30;5.00;;;;;;;;;;4956033;28;20794;-69
2023/06/08 07:00:37;;;;;;;5.20;4.73;;;;;;;;;;4956542;28;20438;-68
2023/06/08 07:03:06;;;;;;;6.27;5.83;;;;;;;;;;4956691;28;20434;-68
2023/06/08 07:05:36;;;;;;;5.77;4.90;;;;;;;;;;4956222;28;20414;-69
2023/06/08 07:08:03;;;;;;;6.40;6.07;;;;;;;;;;4956356;28;20434;-69
2023/06/08 07:10:29;;;;;;;6.10;5.90;;;;;;;;;;4956557;28;20419;-71
2023/06/08 07:12:56;;;;;;;6.13;5.80;;;;;;;;;;4956377;28;20506;-69
2023/06/08 07:15:22;;;;;;;4.90;4.70;;;;;;;;;;4970999;28;20423;-71
2023/06/08 07:17:48;;;;;;;4.77;4.50;;;;;;;;;;4956275;28;20467;-71
2023/06/08 07:20:14;;;;;;;6.00;5.50;;;;;;;;;;4956083;28;20816;-71
2023/06/08 07:22:40;;;;;;;5.10;4.70;;;;;;;;;;4956292;28;20517;-71
2023/06/08 07:25:07;;;;;;;5.67;5.20;;;;;;;;;;4956023;28;20903;-71
2023/06/08 07:27:33;;;;;;;5.50;4.70;;;;;;;;;;4956045;28;20426;-71
2023/06/08 07:29:59;;;;;;;6.40;5.47;;;;;;;;;;4955924;28;20818;-70
2023/06/08 07:32:29;;;;;;;5.53;5.23;;;;;;;;;;4970708;28;20435;-71
2023/06/08 07:34:55;;;;;;;5.05;4.75;;;;;;;;;;4954483;28;20469;-71
2023/06/08 07:37:21;;;;;;;4.90;4.70;;;;;;;;;;4955999;28;20229;-71
2023/06/08 07:39:47;;;;;;;5.23;4.87;;;;;;;;;;4956024;28;20423;-71
2023/06/08 07:42:13;;;;;;;3.83;3.57;;;;;;;;;;4955730;28;20962;-71
2023/06/08 07:44:39;;;;;;;5.10;4.70;;;;;;;;;;4955966;28;20894;-71
2023/06/08 07:47:05;;;;;;;4.47;4.27;;;;;;;;;;4955408;28;20462;-71
2023/06/08 07:49:31;;;;;;;5.10;4.90;;;;;;;;;;4955649;28;20446;-71
2023/06/08 07:51:57;;;;;;;5.43;5.23;;;;;;;;;;4955635;28;20415;-69
2023/06/08 07:54:24;;;;;;;4.70;4.50;;;;;;;;;;4955541;28;20598;-68
2023/06/08 07:56:50;;;;;;;5.90;5.40;;;;;;;;;;4955880;28;20451;-68
2023/06/08 07:59:17;;;;;;;5.23;4.67;;;;;;;;;;4955707;28;20533;-68
2023/06/08 08:01:43;;;;;;;4.50;4.23;;;;;;;;;;4955425;28;20463;-68
2023/06/08 08:04:09;;;;;;;7.47;5.27;;;;;;;;;;4955640;28;20431;-69
2023/06/08 08:06:35;;;;;;;4.90;4.70;;;;;;;;;;4955567;28;20522;-68
2023/06/08 08:09:01;;;;;;;4.70;4.53;;;;;;;;;;4955580;28;20416;-69
2023/06/08 08:11:28;;;;;;;4.47;4.30;;;;;;;;;;4955436;28;20429;-69
2023/06/08 08:13:54;;;;;;;4.90;4.50;;;;;;;;;;4955472;28;20571;-70
2023/06/08 08:16:20;;;;;;;4.90;4.70;;;;;;;;;;4955417;28;20431;-70
2023/06/08 08:18:46;;;;;;;8.10;5.33;;;;;;;;;;4955311;28;20558;-70
2023/06/08 08:21:12;;;;;;;4.70;4.50;;;;;;;;;;4955149;28;20418;-70
2023/06/08 08:23:38;;;;;;;10.30;4.87;;;;;;;;;;4955377;28;20427;-70
2023/06/08 08:26:04;;;;;;;5.87;5.37;;;;;;;;;;4955292;28;20418;-70
2023/06/08 08:28:30;;;;;;;4.77;4.57;;;;;;;;;;4969904;28;20427;-69
2023/06/08 08:30:57;;;;;;;7.07;4.73;;;;;;;;;;4955239;28;20411;-69
2023/06/08 08:33:26;;;;;;;4.00;3.90;;;;;;;;;;4955246;28;20427;-69
2023/06/08 08:35:52;;;;;;;4.63;4.37;;;;;;;;;;4955639;28;20416;-69
2023/06/08 08:38:18;;;;;;;4.73;4.33;;;;;;;;;;4954840;28;21053;-69
2023/06/08 08:40:44;;;;;;;4.60;4.43;;;;;;;;;;4955186;28;20789;-69
2023/06/08 08:43:16;;;;;;;5.17;4.60;;;;;;;;;;4954815;28;20415;-68
2023/06/08 08:45:43;;;;;;;6.93;4.40;;;;;;;;;;4954635;28;20431;-69
2023/06/08 08:48:13;;;;;;;4.30;4.20;;;;;;;;;;4969398;28;20467;-69
2023/06/08 08:50:39;;;;;;;4.80;4.70;;;;;;;;;;4954825;28;20429;-69
2023/06/08 08:53:06;;;;;;;4.30;4.20;;;;;;;;;;4955077;28;20414;-72
2023/06/08 08:55:33;;;;;;;4.37;4.07;;;;;;;;;;4954956;28;20422;-69
2023/06/08 08:58:03;;;;;;;4.70;4.50;;;;;;;;;;4954550;28;20474;-69
2023/06/08 09:00:31;;;;;;;5.20;4.90;;;;;;;;;;4955454;28;20454;-70
2023/06/08 09:02:57;;;;;;;5.37;5.17;;;;;;;;;;4954913;28;20434;-69
2023/06/08 09:05:24;;;;;;;4.50;4.30;;;;;;;;;;4954645;28;20436;-70
2023/06/08 09:07:54;;;;;;;6.33;6.00;;;;;;;;;;4955025;28;20438;-69
2023/06/08 09:10:22;;;;;;;6.00;5.17;;;;;;;;;;4969312;28;20783;-69
2023/06/08 09:12:49;;;;;;;5.27;5.07;;;;;;;;;;4954724;28;20426;-70
2023/06/08 09:15:24;;;;;;;4.70;4.50;;;;;;;;;;4954780;28;20423;-70
2023/06/08 09:17:51;;;;;;;5.17;4.87;;;;;;;;;;4955162;28;20793;-70
2023/06/08 09:20:26;;;;;;;5.70;5.30;;;;;;;;;;4954150;28;20954;-68
2023/06/08 09:22:52;;;;;;;7.03;6.10;;;;;;;;;;4954622;28;20483;-69
2023/06/08 09:25:21;;;;;;;8.57;6.47;;;;;;;;;;4969132;28;20875;-69
2023/06/08 09:27:47;;;;;;;6.27;5.77;;;;;;;;;;4954495;28;20482;-68
2023/06/08 09:30:23;;;;;;;5.57;5.37;;;;;;;;;;4954487;28;20510;-68
2023/06/08 09:32:49;;;;;;;5.93;5.60;;;;;;;;;;4954580;28;20500;-68
2023/06/08 09:35:22;;;;;;;5.40;5.03;;;;;;;;;;4954550;28;20419;-69
2023/06/08 09:40:51;;;;;;;5.47;5.27;;;;;;;;;;4954160;29;20395;-69
2023/06/08 09:43:33;;;;;;;8.33;5.17;;;;;;;;;;4954539;28;20565;-71
2023/06/08 09:45:59;;;;;;;6.13;5.65;;;;;;;;;;4968617;28;20789;-69
2023/06/08 09:48:27;;;;;;;6.00;5.57;;;;;;;;;;4953752;28;20702;-71
2023/06/08 09:51:00;;;;;;;5.87;5.37;;;;;;;;;;4953625;28;20813;-69
2023/06/08 09:53:27;;;;;;;5.93;5.13;;;;;;;;;;4953899;28;20427;-69
2023/06/08 09:55:54;;;;;;;6.40;5.20;;;;;;;;;;4954061;28;20419;-70
2023/06/08 09:58:25;;;;;;;5.40;5.00;;;;;;;;;;4956245;28;20470;-70
2023/06/08 10:00:51;;;;;;;4.23;4.13;;;;;;;;;;4956672;28;20454;-71
2023/06/08 10:03:22;;;;;;;9.50;4.70;;;;;;;;;;4957842;28;20497;-70
2023/06/08 10:05:48;;;;;;;5.20;5.00;;;;;;;;;;4957003;28;20407;-69
2023/06/08 10:08:17;;;;;;;5.10;4.83;;;;;;;;;;4956399;28;20852;-70
2023/06/08 10:10:43;;;;;;;5.50;5.10;;;;;;;;;;4956874;28;20513;-71
2023/06/08 10:13:10;;;;;;;5.83;5.00;;;;;;;;;;4957139;28;20907;-70
2023/06/08 10:15:37;;;;;;;4.77;4.60;;;;;;;;;;4957661;28;20451;-70
2023/06/08 10:18:03;;;;;;;4.70;4.50;;;;;;;;;;4957424;28;20557;-70
2023/06/08 10:20:30;;;;;;;4.97;4.77;;;;;;;;;;4957356;28;20446;-70
2023/06/08 10:22:58;;;;;;;5.13;4.90;;;;;;;;;;4957499;28;20419;-70
2023/06/08 10:25:27;;;;;;;7.03;4.50;;;;;;;;;;4957205;28;20847;-69
2023/06/08 10:27:53;;;;;;;5.90;5.60;;;;;;;;;;4957320;28;20510;-69
2023/06/08 10:30:28;;;;;;;6.30;4.90;;;;;;;;;;4957375;28;20474;-70
2023/06/08 10:32:55;;;;;;;3.93;3.80;;;;;;;;;;4957769;28;20458;-70
2023/06/08 10:35:21;;;;;;;4.60;4.50;;;;;;;;;;4957287;28;20826;-70
2023/06/08 10:37:48;;;;;;;4.20;4.10;;;;;;;;;;4957257;28;20529;-71
2023/06/08 10:40:14;;;;;;;4.57;4.37;;;;;;;;;;4957206;28;20530;-69
2023/06/08 10:42:56;;;;;;;4.23;4.03;;;;;;;;;;4957063;28;20763;-71
2023/06/08 10:45:31;;;;;;;4.20;3.90;;;;;;;;;;4956897;28;20423;-70
2023/06/08 10:48:11;;;;;;;3.40;3.30;;;;;;;;;;4956615;28;20583;-69
2023/06/08 10:50:39;;;;;;;3.90;3.80;;;;;;;;;;4956688;28;20542;-69
2023/06/08 10:53:05;;;;;;;3.50;3.30;;;;;;;;;;4956655;28;20931;-70
2023/06/08 10:55:31;;;;;;;7.17;5.20;;;;;;;;;;4956690;28;20426;-70
2023/06/08 10:58:05;;;;;;;3.70;3.70;;;;;;;;;;4956757;28;20478;-71
2023/06/08 11:00:41;;;;;;;4.00;3.70;;;;;;;;;;4956778;28;20405;-70
2023/06/08 11:03:09;;;;;;;3.37;3.27;;;;;;;;;;4971406;28;20919;-71
2023/06/08 11:05:35;;;;;;;3.63;3.53;;;;;;;;;;4956461;28;20522;-69
2023/06/08 11:08:02;;;;;;;4.10;3.80;;;;;;;;;;4956342;28;20791;-70
2023/06/08 11:10:31;;;;;;;4.23;4.00;;;;;;;;;;4956881;28;20780;-71
2023/06/08 11:13:05;;;;;;;3.77;3.67;;;;;;;;;;4956602;28;20415;-70
2023/06/08 11:15:31;;;;;;;3.33;3.23;;;;;;;;;;4956555;28;20465;-70
2023/06/08 11:17:57;;;;;;;3.87;3.40;;;;;;;;;;4956116;28;21043;-69
2023/06/08 11:20:24;;;;;;;2.80;2.70;;;;;;;;;;4956433;28;20419;-70
2023/06/08 11:22:50;;;;;;;5.10;3.60;;;;;;;;;;4956353;28;20414;-70
2023/06/08 11:25:19;;;;;;;6.33;3.47;;;;;;;;;;4956056;28;20427;-71
2023/06/08 11:27:46;;;;;;;3.10;2.93;;;;;;;;;;4955986;28;20411;-70
2023/06/08 11:30:18;;;;;;;3.60;3.00;;;;;;;;;;4956353;28;20415;-70
2023/06/08 11:32:46;;;;;;;3.23;3.03;;;;;;;;;;4956061;28;20511;-69
2023/06/08 11:35:12;;;;;;;6.30;2.70;;;;;;;;;;4956632;28;20458;-70
2023/06/08 11:37:41;;;;;;;3.33;3.23;;;;;;;;;;4955841;28;20553;-71
2023/06/08 11:40:14;;;;;;;3.60;3.40;;;;;;;;;;4955835;28;20510;-70
2023/06/08 11:42:40;;;;;;;3.57;3.47;;;;;;;;;;4956005;28;20502;-69
2023/06/08 11:45:07;;;;;;;3.60;3.50;;;;;;;;;;4970557;28;20446;-70
2023/06/08 11:47:34;;;;;;;3.00;2.90;;;;;;;;;;4955530;28;20978;-70
2023/06/08 11:50:01;;;;;;;3.53;3.43;;;;;;;;;;4956078;28;20903;-70
2023/06/08 11:52:28;;;;;;;2.80;2.70;;;;;;;;;;4955763;28;20778;-70
2023/06/08 11:54:55;;;;;;;3.90;3.80;;;;;;;;;;4955560;28;20790;-69
2023/06/08 11:57:21;;;;;;;2.80;2.80;;;;;;;;;;4955587;28;20506;-70
2023/06/08 11:59:49;;;;;;;3.77;3.50;;;;;;;;;;4955394;28;20844;-70
2023/06/08 12:02:21;;;;;;;3.40;3.20;;;;;;;;;;4955623;28;20755;-70
2023/06/08 12:04:47;;;;;;;3.23;3.13;;;;;;;;;;4955694;28;20825;-70
2023/06/08 12:07:14;;;;;;;3.80;3.50;;;;;;;;;;4955323;28;20411;-70
2023/06/08 12:09:47;;;;;;;3.37;3.27;;;;;;;;;;4955196;28;20458;-70
2023/06/08 12:12:13;;;;;;;4.13;3.97;;;;;;;;;;4955261;28;20415;-70
2023/06/08 12:14:48;;;;;;;3.73;3.53;;;;;;;;;;4955487;28;20423;-69
2023/06/08 12:17:15;;;;;;;3.07;2.97;;;;;;;;;;4970012;28;20438;-70
2023/06/08 12:19:45;;;;;;;3.97;3.73;;;;;;;;;;4954767;28;20447;-69
2023/06/08 12:22:11;;;;;;;3.43;3.13;;;;;;;;;;4955161;28;20427;-70
2023/06/08 12:24:37;;;;;;;4.53;3.47;;;;;;;;;;4955091;28;20414;-70
2023/06/08 12:27:06;;;;;;;5.43;4.10;;;;;;;;;;4955175;28;20415;-70
2023/06/08 12:29:32;;;;;;;4.17;4.07;;;;;;;;;;4955275;28;20430;-71
2023/06/08 12:31:59;;;;;;;3.63;3.50;;;;;;;;;;4955272;28;20764;-69
2023/06/08 12:34:25;;;;;;;4.43;4.23;;;;;;;;;;4954991;28;20970;-70
2023/06/08 12:36:51;;;;;;;4.07;3.87;;;;;;;;;;4955041;28;20722;-70
2023/06/08 12:39:17;;;;;;;3.70;3.60;;;;;;;;;;4954813;28;20997;-69
2023/06/08 12:41:42;;;;;;;3.50;3.40;;;;;;;;;;4955076;28;20919;-71
2023/06/08 12:44:10;;;;;;;3.80;3.80;;;;;;;;;;4955131;28;20859;-70
2023/06/08 12:46:36;;;;;;;2.90;2.80;;;;;;;;;;4954486;28;20502;-69
2023/06/08 12:49:02;;;;;;;3.20;3.10;;;;;;;;;;4955130;28;20430;-69
2023/06/08 12:51:28;;;;;;;3.17;3.17;;;;;;;;;;4955053;28;20418;-69
2023/06/08 12:53:54;;;;;;;3.63;3.53;;;;;;;;;;4954899;28;20510;-69
2023/06/08 12:56:20;;;;;;;3.07;2.97;;;;;;;;;;4955709;28;20517;-69
2023/06/08 12:58:46;;;;;;;4.03;3.83;;;;;;;;;;4954855;28;20479;-68
2023/06/08 13:01:12;;;;;;;3.03;3.03;;;;;;;;;;4954920;28;20415;-69
2023/06/08 13:03:39;;;;;;;3.23;3.13;;;;;;;;;;4954662;28;20791;-69
2023/06/08 13:06:05;;;;;;;3.20;3.10;;;;;;;;;;4954600;28;20430;-70
2023/06/08 13:08:31;;;;;;;4.23;3.93;;;;;;;;;;4954878;28;20858;-69
2023/06/08 13:10:57;;;;;;;3.10;3.00;;;;;;;;;;4954562;28;20974;-69
2023/06/08 13:13:25;;;;;;;2.70;2.70;;;;;;;;;;4954818;28;20423;-69
2023/06/08 13:15:53;;;;;;;3.77;3.47;;;;;;;;;;4954495;28;20490;-69
2023/06/08 13:18:20;;;;;;;2.73;2.73;;;;;;;;;;4954974;28;20927;-69
2023/06/08 13:20:47;;;;;;;3.57;3.40;;;;;;;;;;4954387;28;20490;-70
2023/06/08 13:23:13;;;;;;;3.30;3.20;;;;;;;;;;4954560;28;20457;-67
2023/06/08 13:25:39;;;;;;;3.40;3.20;;;;;;;;;;4953623;28;20841;-70
2023/06/08 13:28:07;;;;;;;3.80;3.57;;;;;;;;;;4954838;28;20623;-70
2023/06/08 13:30:33;;;;;;;3.63;3.53;;;;;;;;;;4954349;28;20831;-71
2023/06/08 13:33:02;;;;;;;3.20;3.10;;;;;;;;;;4956760;28;20541;-72
2023/06/08 13:35:29;;;;;;;3.80;3.60;;;;;;;;;;4958147;28;20799;-70
2023/06/08 13:37:55;;;;;;;2.60;2.57;;;;;;;;;;4957989;28;20462;-70
2023/06/08 13:40:21;;;;;;;2.70;2.70;;;;;;;;;;4958266;28;20816;-71
2023/06/08 13:42:47;;;;;;;2.57;2.43;;;;;;;;;;4958206;28;20528;-69
2023/06/08 13:45:13;;;;;;;2.80;2.60;;;;;;;;;;4958162;28;20433;-69
2023/06/08 13:47:40;;;;;;;3.03;2.70;;;;;;;;;;4958113;28;20478;-68
2023/06/08 13:50:07;;;;;;;2.70;2.70;;;;;;;;;;4973476;28;20427;-69
2023/06/08 13:52:33;;;;;;;2.80;2.80;;;;;;;;;;4957727;28;20454;-69
2023/06/08 13:54:59;;;;;;;3.23;3.00;;;;;;;;;;4958259;28;20980;-69
2023/06/08 13:57:25;;;;;;;3.10;2.90;;;;;;;;;;4957795;28;20418;-70
2023/06/08 13:59:51;;;;;;;2.90;2.80;;;;;;;;;;4958049;28;20448;-70
2023/06/08 14:02:17;;;;;;;2.73;2.70;;;;;;;;;;4957653;28;20856;-69
2023/06/08 14:04:44;;;;;;;3.17;3.07;;;;;;;;;;4957591;28;20477;-69
2023/06/08 14:07:10;;;;;;;3.17;3.07;;;;;;;;;;4957522;28;20811;-70
2023/06/08 14:09:36;;;;;;;7.10;3.67;;;;;;;;;;4958270;28;20474;-69
2023/06/08 14:12:02;;;;;;;3.60;3.43;;;;;;;;;;4957715;28;20426;-69
2023/06/08 14:14:28;;;;;;;3.03;2.83;;;;;;;;;;4957468;28;20931;-69
2023/06/08 14:16:54;;;;;;;2.73;2.63;;;;;;;;;;4957361;28;20423;-70
2023/06/08 14:19:20;;;;;;;3.10;3.00;;;;;;;;;;4957536;28;20481;-71
2023/06/08 14:21:46;;;;;;;3.03;2.80;;;;;;;;;;4957198;28;20423;-70
2023/06/08 14:24:12;;;;;;;3.93;2.67;;;;;;;;;;4957282;28;20454;-70
2023/06/08 14:26:38;;;;;;;3.73;3.43;;;;;;;;;;4957192;28;20427;-69
2023/06/08 14:29:05;;;;;;;3.03;2.80;;;;;;;;;;4957371;28;20435;-69
2023/06/08 14:31:31;;;;;;;3.20;3.07;;;;;;;;;;4957221;28;20419;-69
2023/06/08 14:33:57;;;;;;;7.33;4.23;;;;;;;;;;4957026;28;20423;-69
2023/06/08 14:36:23;;;;;;;4.10;3.80;;;;;;;;;;4956869;28;20478;-69
2023/06/08 14:38:49;;;;;;;3.20;3.20;;;;;;;;;;4956763;28;20474;-69
2023/06/08 14:41:16;;;;;;;3.13;2.93;;;;;;;;;;4956872;28;20423;-69
2023/06/08 14:43:42;;;;;;;3.33;3.23;;;;;;;;;;4956708;28;20775;-69
2023/06/08 14:46:11;;;;;;;3.33;3.13;;;;;;;;;;4956986;28;20419;-70
2023/06/08 14:48:37;;;;;;;3.50;3.40;;;;;;;;;;4956936;28;20483;-69
2023/06/08 14:51:03;;;;;;;2.60;2.60;;;;;;;;;;4957010;28;20486;-69
2023/06/08 14:53:30;;;;;;;2.80;2.80;;;;;;;;;;4956529;28;20998;-69